Time;durP1;ratioP1;P1;durP2;ratioP2;P2;SDS_P1;SDS_P2;PMS_P1;PMS_P2;Temp;Humidity;BMP_temperature;BMP_pressure;BME280_temperature;BME280_humidity;BME280_pressure;Samples;Min_cycle;Max_cycle;Signal;HPM_P1;HPM_P2
2022/08/25 00:02:00;;;;;;;21.50;9.50;;;;;;;21.47;97.81;94745.06;5094632;28;20455;-75
2022/08/25 00:04:28;;;;;;;21.53;10.03;;;;;;;21.50;97.81;94735.81;5094618;28;20447;-74
2022/08/25 00:06:55;;;;;;;26.53;9.93;;;;;;;21.50;97.91;94750.00;5094454;28;20922;-75
2022/08/25 00:09:25;;;;;;;18.33;10.20;;;;;;;21.53;97.74;94746.91;5094815;28;20440;-74
2022/08/25 00:11:52;;;;;;;17.90;8.57;;;;;;;21.56;97.88;94743.03;5059043;28;20467;-74
2022/08/25 00:14:21;;;;;;;20.63;10.83;;;;;;;21.59;98.02;94739.94;5094280;28;20553;-75
2022/08/25 00:16:48;;;;;;;24.07;9.70;;;;;;;21.59;97.96;94735.41;5075311;28;20991;-74
2022/08/25 00:19:23;;;;;;;29.33;9.10;;;;;;;21.58;97.92;94733.78;5094375;28;20830;-75
2022/08/25 00:21:50;;;;;;;15.77;9.20;;;;;;;21.58;97.90;94730.28;5094257;28;20436;-74
2022/08/25 00:24:19;;;;;;;20.70;10.70;;;;;;;21.58;98.04;94723.09;5093874;28;20443;-75
2022/08/25 00:26:48;;;;;;;17.37;8.90;;;;;;;21.58;97.99;94727.63;5059098;28;20455;-74
2022/08/25 00:29:15;;;;;;;12.97;8.00;;;;;;;21.58;97.99;94724.94;5093951;28;20545;-75
2022/08/25 00:31:43;;;;;;;21.17;9.97;;;;;;;21.58;97.72;94727.63;5058480;28;20440;-76
2022/08/25 00:34:13;;;;;;;22.37;8.63;;;;;;;21.56;97.92;94727.00;5093927;28;20564;-75
2022/08/25 00:36:41;;;;;;;24.73;9.53;;;;;;;21.58;98.17;94727.63;5094299;28;20475;-75
2022/08/25 00:39:09;;;;;;;19.70;11.50;;;;;;;21.55;98.05;94731.50;5093690;28;20444;-75
2022/08/25 00:41:38;;;;;;;17.93;9.60;;;;;;;21.54;97.97;94740.56;5094092;28;20446;-74
2022/08/25 00:44:07;;;;;;;26.63;10.30;;;;;;;21.53;97.93;94736.25;5094152;28;20812;-74
2022/08/25 00:46:36;;;;;;;17.87;8.90;;;;;;;21.53;97.79;94749.59;5093952;28;20795;-75
2022/08/25 00:49:07;;;;;;;13.87;9.50;;;;;;;21.52;98.07;94753.28;5093883;28;20852;-74
2022/08/25 00:51:38;;;;;;;17.17;9.33;;;;;;;21.51;98.40;94740.94;5093600;28;20455;-75
2022/08/25 00:54:08;;;;;;;13.43;8.57;;;;;;;21.51;98.19;94743.63;5093379;28;20528;-75
2022/08/25 00:56:35;;;;;;;18.50;9.90;;;;;;;21.51;98.49;94737.47;5041275;28;20468;-75
2022/08/25 00:59:03;;;;;;;16.27;9.50;;;;;;;21.50;98.46;94722.47;5093542;28;20440;-75
2022/08/25 01:01:30;;;;;;;17.60;8.57;;;;;;;21.51;98.64;94724.94;5093486;28;20439;-75
2022/08/25 01:03:57;;;;;;;17.10;9.40;;;;;;;21.47;98.94;94721.03;5093671;28;20495;-74
2022/08/25 01:06:24;;;;;;;20.63;9.67;;;;;;;21.48;99.56;94719.19;5093064;28;20938;-74
2022/08/25 01:08:53;;;;;;;21.17;9.50;;;;;;;21.45;99.34;94714.25;5041240;28;20451;-74
2022/08/25 01:11:21;;;;;;;25.50;10.63;;;;;;;21.45;99.75;94715.06;5093442;28;20534;-75
2022/08/25 01:13:52;;;;;;;30.80;10.73;;;;;;;21.42;99.53;94707.47;5093192;28;20909;-75
2022/08/25 01:16:19;;;;;;;18.53;10.30;;;;;;;21.40;99.85;94706.84;5093376;28;20444;-75
2022/08/25 01:18:48;;;;;;;17.83;11.10;;;;;;;21.42;99.91;94704.78;5093102;28;21018;-74
2022/08/25 01:21:19;;;;;;;16.73;9.80;;;;;;;21.44;99.89;94702.75;5093017;28;20474;-75
2022/08/25 01:23:46;;;;;;;23.03;10.00;;;;;;;21.42;99.89;94704.78;5092944;28;20905;-75
2022/08/25 01:26:16;;;;;;;17.10;9.37;;;;;;;21.45;99.84;94698.22;5093275;28;20785;-74
2022/08/25 01:31:25;;;;;;;16.50;9.63;;;;;;;21.42;99.88;94711.97;5092086;28;20433;-75
2022/08/25 01:33:52;;;;;;;17.80;8.97;;;;;;;21.33;99.99;94709.47;5092565;28;20497;-75
2022/08/25 01:36:21;;;;;;;18.93;9.43;;;;;;;21.33;100.00;94711.31;5092838;28;20440;-75
2022/08/25 01:38:48;;;;;;;19.43;9.70;;;;;;;21.33;100.00;94711.31;5092649;28;20956;-75
2022/08/25 01:41:17;;;;;;;26.53;9.40;;;;;;;21.36;100.00;94718.91;5092916;28;20505;-75
2022/08/25 01:43:44;;;;;;;18.97;9.83;;;;;;;21.38;100.00;94716.88;5092808;28;20454;-75
2022/08/25 01:46:11;;;;;;;23.90;9.87;;;;;;;21.39;100.00;94712.34;5092591;28;20897;-75
2022/08/25 01:48:38;;;;;;;19.80;9.53;;;;;;;21.39;100.00;94723.03;5040177;28;20475;-75
2022/08/25 01:51:05;;;;;;;26.73;9.93;;;;;;;21.43;100.00;94713.63;5092193;28;20443;-75
2022/08/25 01:53:33;;;;;;;17.30;9.53;;;;;;;21.42;100.00;94710.13;5092768;28;20487;-74
2022/08/25 01:56:08;;;;;;;15.43;9.10;;;;;;;21.46;100.00;94700.69;5092888;28;20950;-74
2022/08/25 01:58:37;;;;;;;18.03;9.90;;;;;;;21.48;100.00;94698.63;5092849;28;20501;-74
2022/08/25 02:01:06;;;;;;;28.30;9.67;;;;;;;21.50;99.98;94701.94;5092535;28;20439;-75
2022/08/25 02:03:36;;;;;;;15.53;8.73;;;;;;;21.52;100.00;94697.22;5092618;28;20448;-74
2022/08/25 02:06:04;;;;;;;19.73;9.63;;;;;;;21.47;100.00;94697.00;5092249;28;20930;-74
2022/08/25 02:08:32;;;;;;;20.73;9.93;;;;;;;21.50;99.86;94691.25;5092318;28;20444;-75
2022/08/25 02:10:59;;;;;;;20.00;9.17;;;;;;;21.49;100.00;94699.47;5040311;28;20450;-74
2022/08/25 02:13:26;;;;;;;16.40;9.53;;;;;;;21.44;100.00;94689.41;5091835;28;20495;-74
2022/08/25 02:15:56;;;;;;;24.43;9.33;;;;;;;21.46;100.00;94689.19;5092351;28;20443;-74
2022/08/25 02:18:23;;;;;;;21.77;9.93;;;;;;;21.46;100.00;94687.34;5092258;28;20451;-75
2022/08/25 02:20:51;;;;;;;17.00;9.80;;;;;;;21.46;100.00;94689.19;5092356;28;20443;-75
2022/08/25 02:23:18;;;;;;;10.67;9.27;;;;;;;21.47;100.00;94686.31;5092318;28;20489;-74
2022/08/25 02:25:46;;;;;;;15.60;10.30;;;;;;;21.45;100.00;94679.53;5092083;28;20448;-74
2022/08/25 02:28:13;;;;;;;20.37;9.87;;;;;;;21.46;100.00;94684.66;5092289;28;20444;-74
2022/08/25 02:30:42;;;;;;;22.03;9.57;;;;;;;21.45;100.00;94685.69;5092258;28;20443;-75
2022/08/25 02:33:09;;;;;;;22.63;10.60;;;;;;;21.43;100.00;94682.41;5092047;28;20583;-74
2022/08/25 02:35:37;;;;;;;16.00;10.27;;;;;;;21.44;100.00;94686.72;5091880;28;20452;-74
2022/08/25 02:38:06;;;;;;;26.93;10.47;;;;;;;21.44;100.00;94684.06;5092033;28;20493;-74
2022/08/25 02:40:33;;;;;;;19.10;10.30;;;;;;;21.33;100.00;94688.09;5091891;28;20443;-74
2022/08/25 02:43:02;;;;;;;30.87;10.17;;;;;;;21.28;100.00;94687.06;5092203;28;20454;-74
2022/08/25 02:45:29;;;;;;;31.27;11.13;;;;;;;21.26;100.00;94697.94;5091808;28;20510;-75
2022/08/25 02:47:55;;;;;;;28.57;11.67;;;;;;;21.17;100.00;94701.78;5091977;28;21010;-75
2022/08/25 02:50:23;;;;;;;22.63;9.80;;;;;;;21.17;100.00;94699.13;5091711;28;20988;-75
2022/08/25 02:52:51;;;;;;;22.13;10.33;;;;;;;21.18;100.00;94699.94;5056446;28;20439;-75
2022/08/25 02:55:18;;;;;;;19.87;10.97;;;;;;;21.18;100.00;94705.28;5091988;28;20494;-74
2022/08/25 02:57:45;;;;;;;18.10;10.97;;;;;;;21.21;100.00;94696.88;5056427;28;20439;-74
2022/08/25 03:00:16;;;;;;;27.23;10.57;;;;;;;21.23;100.00;94687.69;5056167;28;20440;-75
2022/08/25 03:02:44;;;;;;;21.00;11.60;;;;;;;21.28;100.00;94703.09;5094055;28;20969;-74
2022/08/25 03:05:12;;;;;;;20.43;10.37;;;;;;;21.33;100.00;94711.31;5095288;28;20520;-75
2022/08/25 03:07:39;;;;;;;23.80;10.70;;;;;;;21.34;100.00;94704.94;5115807;28;20461;-74
2022/08/25 03:10:09;;;;;;;26.67;11.63;;;;;;;21.39;100.00;94709.69;5116247;28;20473;-75
2022/08/25 03:12:36;;;;;;;17.47;10.87;;;;;;;21.40;100.00;94700.69;5116209;28;20479;-74
2022/08/25 03:15:04;;;;;;;18.80;11.30;;;;;;;21.41;100.00;94702.31;5115865;28;20489;-74
2022/08/25 03:17:32;;;;;;;22.57;11.13;;;;;;;21.42;100.00;94704.78;5115932;28;20439;-75
2022/08/25 03:19:58;;;;;;;15.93;11.80;;;;;;;21.46;100.00;94710.53;5116443;28;20449;-75
2022/08/25 03:22:25;;;;;;;17.93;10.60;;;;;;;21.42;100.00;94711.97;5115801;28;20496;-74
2022/08/25 03:26:52;;;;;;;14.53;10.87;;;;;;;21.40;100.00;94712.19;5115947;28;20451;-74
2022/08/25 03:27:38;;;;;;;15.07;10.67;;;;;;;21.39;100.00;94715.84;5115454;28;20439;-74
2022/08/25 03:30:06;;;;;;;19.70;9.90;;;;;;;21.43;100.00;94713.63;5115482;28;20483;-74
2022/08/25 03:32:35;;;;;;;18.07;10.60;;;;;;;21.44;100.00;94716.09;5079629;28;20261;-74
2022/08/25 03:35:01;;;;;;;24.63;11.50;;;;;;;21.45;100.00;94715.06;5115540;28;20988;-74
2022/08/25 03:37:28;;;;;;;21.07;9.80;;;;;;;21.43;100.00;94722.47;5115864;28;20802;-74
2022/08/25 03:39:55;;;;;;;17.13;11.20;;;;;;;21.34;100.00;94718.28;5115584;28;20443;-74
2022/08/25 03:42:22;;;;;;;19.07;11.00;;;;;;;21.32;100.00;94715.00;5115660;28;20443;-74
2022/08/25 03:44:49;;;;;;;16.73;10.70;;;;;;;21.31;100.00;94710.69;5115215;28;20447;-75
2022/08/25 03:47:16;;;;;;;19.13;10.53;;;;;;;21.35;100.00;94709.25;5115078;28;20450;-75
2022/08/25 03:49:44;;;;;;;20.33;12.03;;;;;;;21.36;100.00;94705.56;5114994;28;20469;-75
2022/08/25 03:52:11;;;;;;;16.63;11.20;;;;;;;21.36;100.00;94694.88;5115243;28;20435;-75
2022/08/25 03:54:38;;;;;;;19.40;11.30;;;;;;;21.35;100.00;94695.91;5062780;28;20539;-74
2022/08/25 03:57:05;;;;;;;24.00;11.70;;;;;;;21.33;100.00;94697.97;5115016;28;20449;-75
2022/08/25 03:59:32;;;;;;;18.70;10.00;;;;;;;21.29;100.00;94704.72;5115304;28;20442;-75
2022/08/25 04:01:58;;;;;;;27.03;11.27;;;;;;;21.28;100.00;94703.09;5115766;28;20947;-74
2022/08/25 04:04:25;;;;;;;23.73;12.77;;;;;;;21.25;100.00;94715.00;5115434;28;20451;-74
2022/08/25 04:06:53;;;;;;;16.53;12.17;;;;;;;21.23;100.00;94709.03;5115607;28;20492;-75
2022/08/25 04:09:20;;;;;;;19.10;10.30;;;;;;;21.26;100.00;94710.47;5115305;28;20484;-75
2022/08/25 04:11:47;;;;;;;25.77;11.83;;;;;;;21.28;100.00;94700.41;5115255;28;20517;-76
2022/08/25 04:14:14;;;;;;;25.30;11.07;;;;;;;21.29;100.00;94688.72;5114595;28;21022;-75
2022/08/25 04:16:41;;;;;;;23.53;12.10;;;;;;;21.28;100.00;94689.75;5079309;28;20459;-74
2022/08/25 04:19:09;;;;;;;21.13;13.30;;;;;;;21.32;100.00;94696.31;5115018;28;20809;-75
2022/08/25 04:21:36;;;;;;;13.67;11.20;;;;;;;21.37;100.00;94695.72;5115052;28;20450;-75
2022/08/25 04:24:05;;;;;;;23.23;12.73;;;;;;;21.42;100.00;94688.78;5115086;28;20500;-75
2022/08/25 04:26:36;;;;;;;17.43;13.30;;;;;;;21.44;100.00;94697.41;5114621;28;20880;-75
2022/08/25 04:29:04;;;;;;;26.73;12.70;;;;;;;21.45;100.00;94693.72;5114821;28;20474;-75
2022/08/25 04:31:33;;;;;;;26.77;12.00;;;;;;;21.45;100.00;94690.22;5114827;28;20914;-75
2022/08/25 04:34:02;;;;;;;22.37;12.60;;;;;;;21.46;100.00;94690.00;5114648;28;20569;-75
2022/08/25 04:36:29;;;;;;;20.10;12.30;;;;;;;21.49;100.00;94692.28;5114716;28;20794;-76
2022/08/25 04:38:56;;;;;;;23.80;13.67;;;;;;;21.47;100.00;94699.66;5114841;28;20922;-75
2022/08/25 04:41:26;;;;;;;25.73;13.73;;;;;;;21.51;100.00;94708.91;5114477;28;20447;-74
2022/08/25 04:43:53;;;;;;;17.63;11.13;;;;;;;21.56;100.00;94710.97;5114716;28;20930;-75
2022/08/25 04:46:23;;;;;;;24.60;14.23;;;;;;;21.56;100.00;94700.28;5114560;28;20443;-76
2022/08/25 04:48:51;;;;;;;21.70;12.80;;;;;;;21.67;100.00;94707.69;5114477;28;20435;-75
2022/08/25 04:51:22;;;;;;;21.83;12.03;;;;;;;21.76;100.00;94711.03;5078420;28;20443;-75
2022/08/25 04:53:49;;;;;;;27.03;13.63;;;;;;;21.90;100.00;94712.69;5114294;28;20505;-75
2022/08/25 04:56:17;;;;;;;30.30;14.20;;;;;;;22.13;100.00;94704.28;5114669;28;20443;-76
2022/08/25 04:58:46;;;;;;;22.20;13.30;;;;;;;22.25;100.00;94708.81;5114557;28;20439;-77
2022/08/25 05:01:15;;;;;;;26.87;12.80;;;;;;;22.31;100.00;94709.03;5114103;28;20478;-74
2022/08/25 05:03:44;;;;;;;27.30;12.57;;;;;;;22.32;100.00;94708.00;5114062;28;20526;-75
2022/08/25 05:06:11;;;;;;;25.93;13.40;;;;;;;22.34;99.62;94708.63;5114209;28;20492;-75
2022/08/25 05:08:38;;;;;;;20.60;12.80;;;;;;;22.37;100.00;94700.19;5113995;28;20963;-75
2022/08/25 05:11:06;;;;;;;18.10;12.90;;;;;;;22.50;100.00;94703.66;5114432;28;20454;-76
2022/08/25 05:13:33;;;;;;;18.07;12.40;;;;;;;22.62;100.00;94706.53;5113885;28;20845;-76
2022/08/25 05:16:02;;;;;;;20.07;12.67;;;;;;;22.71;100.00;94702.59;5061735;28;20446;-76
2022/08/25 05:18:31;;;;;;;20.70;13.10;;;;;;;22.77;99.53;94692.91;5113876;28;20439;-76
2022/08/25 05:21:02;;;;;;;22.27;13.27;;;;;;;22.80;98.64;94693.31;5114062;28;20447;-75
2022/08/25 05:23:29;;;;;;;22.77;12.97;;;;;;;22.84;98.11;94693.72;5113598;28;20809;-75
2022/08/25 05:25:56;;;;;;;22.93;12.40;;;;;;;22.90;97.82;94694.75;5113067;28;20458;-75
2022/08/25 05:28:23;;;;;;;18.90;11.77;;;;;;;23.01;97.51;94689.56;5113970;28;20870;-76
2022/08/25 05:30:49;;;;;;;25.70;12.70;;;;;;;23.11;96.35;94684.56;5113806;28;20442;-75
2022/08/25 05:33:19;;;;;;;24.83;11.67;;;;;;;23.22;99.12;94699.19;5114091;28;20443;-80
2022/08/25 05:35:46;;;;;;;20.40;13.00;;;;;;;23.36;97.35;94687.34;5114270;28;20508;-81
2022/08/25 05:38:13;;;;;;;19.43;12.20;;;;;;;23.57;100.00;94691.59;5113978;28;20450;-79
2022/08/25 05:40:39;;;;;;;23.30;12.20;;;;;;;23.60;96.29;94698.38;5113392;28;20842;-77
2022/08/25 05:43:06;;;;;;;29.77;12.33;;;;;;;23.53;91.75;94703.75;5113632;28;20925;-76
2022/08/25 05:45:33;;;;;;;23.00;11.83;;;;;;;23.48;90.35;94704.41;5113474;28;20499;-76
2022/08/25 05:48:00;;;;;;;29.93;11.80;;;;;;;23.47;92.65;94700.09;5113405;28;20434;-76
2022/08/25 05:50:28;;;;;;;17.93;10.20;;;;;;;23.51;92.71;94694.31;5113256;28;20956;-76
2022/08/25 05:52:55;;;;;;;29.97;11.70;;;;;;;23.51;91.54;94699.66;5113655;28;20443;-75
2022/08/25 05:55:22;;;;;;;23.80;11.83;;;;;;;23.52;90.15;94695.94;5113271;28;20489;-76
2022/08/25 05:57:48;;;;;;;17.13;10.77;;;;;;;23.58;90.82;94695.09;5113645;28;20469;-76
2022/08/25 06:00:16;;;;;;;28.00;11.87;;;;;;;23.55;90.35;94692.84;5113299;28;20545;-76
2022/08/25 06:02:43;;;;;;;24.70;11.40;;;;;;;23.51;89.07;94696.97;5113086;28;20977;-76
2022/08/25 06:05:11;;;;;;;30.20;13.00;;;;;;;23.48;89.85;94696.38;5113077;28;20454;-76
2022/08/25 06:07:40;;;;;;;26.00;11.83;;;;;;;23.43;89.32;94693.53;5113260;28;20512;-76
2022/08/25 06:10:10;;;;;;;21.90;11.70;;;;;;;23.44;89.58;94695.16;5113170;28;20447;-76
2022/08/25 06:12:38;;;;;;;19.73;10.70;;;;;;;23.46;89.07;94700.31;5076591;28;20554;-76
2022/08/25 06:15:05;;;;;;;24.87;12.67;;;;;;;23.51;88.79;94699.66;5112565;28;20483;-76
2022/08/25 06:17:33;;;;;;;21.53;11.23;;;;;;;23.48;87.89;94690.19;5112706;28;20453;-76
2022/08/25 06:20:00;;;;;;;19.93;11.97;;;;;;;23.55;88.22;94696.34;5112518;28;20503;-76
2022/08/25 06:22:27;;;;;;;21.83;12.10;;;;;;;23.64;88.38;94699.59;5112744;28;20801;-76
2022/08/25 06:24:55;;;;;;;33.30;11.63;;;;;;;23.75;88.42;94696.25;5112880;28;20457;-76
2022/08/25 06:27:22;;;;;;;34.83;12.50;;;;;;;23.73;87.04;94692.97;5112911;28;20450;-77
2022/08/25 06:29:49;;;;;;;19.23;11.93;;;;;;;23.84;87.80;94694.94;5112718;28;20451;-76
2022/08/25 06:32:16;;;;;;;22.80;12.07;;;;;;;23.96;86.76;94698.56;5113304;28;20439;-76
2022/08/25 06:34:42;;;;;;;26.80;11.17;;;;;;;24.02;86.75;94703.09;5112270;28;20487;-76
2022/08/25 06:37:09;;;;;;;15.70;11.20;;;;;;;24.12;85.28;94691.84;5115724;28;20442;-77
2022/08/25 06:39:36;;;;;;;21.07;11.67;;;;;;;24.22;84.82;94692.19;5116682;28;20504;-77
2022/08/25 06:42:05;;;;;;;18.60;12.00;;;;;;;24.26;84.90;94692.56;5116406;28;20443;-76
2022/08/25 06:44:31;;;;;;;20.53;11.87;;;;;;;24.33;84.83;94698.75;5116377;28;20450;-76
2022/08/25 06:46:58;;;;;;;19.23;11.63;;;;;;;24.40;83.59;94702.19;5116386;28;20929;-77
2022/08/25 06:49:27;;;;;;;32.00;11.80;;;;;;;24.52;83.09;94703.09;5116324;28;21085;-77
2022/08/25 06:51:54;;;;;;;33.97;11.53;;;;;;;24.67;82.58;94711.63;5116499;28;20779;-76
2022/08/25 06:54:21;;;;;;;23.17;10.47;;;;;;;24.82;81.61;94707.75;5116087;28;20451;-77
2022/08/25 06:56:47;;;;;;;26.00;10.13;;;;;;;25.04;81.47;94700.94;5116196;28;20443;-77
2022/08/25 06:59:16;;;;;;;18.10;9.30;;;;;;;25.28;78.49;94716.16;5116565;28;20963;-76
2022/08/25 07:01:43;;;;;;;24.20;11.07;;;;;;;25.52;78.63;94713.59;5115889;28;20447;-76
2022/08/25 07:04:10;;;;;;;19.20;10.63;;;;;;;25.75;77.16;94718.28;5116259;28;20446;-77
2022/08/25 07:06:37;;;;;;;17.87;10.03;;;;;;;25.83;75.05;94716.09;5116296;28;20470;-76
2022/08/25 07:09:06;;;;;;;22.53;10.90;;;;;;;25.85;75.05;94721.25;5116527;28;21194;-77
2022/08/25 07:11:33;;;;;;;25.83;10.90;;;;;;;25.79;75.83;94709.53;5115837;28;20443;-77
2022/08/25 07:14:01;;;;;;;18.87;9.73;;;;;;;25.79;75.57;94708.72;5116027;28;20519;-76
2022/08/25 07:16:31;;;;;;;21.87;9.40;;;;;;;25.77;74.93;94710.81;5115940;28;20486;-77
2022/08/25 07:18:59;;;;;;;16.20;8.60;;;;;;;25.68;75.45;94702.22;5115662;28;20948;-76
2022/08/25 07:21:27;;;;;;;14.27;9.70;;;;;;;25.67;75.50;94705.16;5115671;28;20513;-77
2022/08/25 07:23:57;;;;;;;15.83;10.77;;;;;;;25.55;75.84;94705.91;5115803;28;20443;-76
2022/08/25 07:26:26;;;;;;;16.83;10.03;;;;;;;25.53;76.83;94705.31;5115719;28;20476;-77
2022/08/25 07:28:53;;;;;;;19.60;9.60;;;;;;;25.57;75.95;94705.66;5115593;28;20941;-77
2022/08/25 07:31:20;;;;;;;22.40;8.90;;;;;;;25.68;74.80;94715.66;5062746;28;20941;-77
2022/08/25 07:36:33;;;;;;;15.63;9.23;;;;;;;25.88;74.03;94705.47;5115500;28;20474;-77
2022/08/25 07:39:03;;;;;;;33.50;9.93;;;;;;;26.15;73.96;94707.75;5115462;28;20435;-76
2022/08/25 07:41:31;;;;;;;18.50;9.07;;;;;;;26.44;72.30;94709.59;5115521;28;20468;-77
2022/08/25 07:43:59;;;;;;;22.77;8.43;;;;;;;26.69;71.40;94706.69;5079436;28;20423;-77
2022/08/25 07:46:26;;;;;;;23.13;8.30;;;;;;;26.96;70.20;94717.78;5115624;28;20478;-78
2022/08/25 07:48:54;;;;;;;25.60;8.83;;;;;;;27.29;68.59;94708.28;5114757;28;20439;-77
2022/08/25 07:51:21;;;;;;;21.70;8.20;;;;;;;27.66;68.74;94701.50;5115411;28;20932;-77
2022/08/25 07:53:48;;;;;;;20.60;9.23;;;;;;;27.76;66.32;94707.13;5115009;28;20450;-76
2022/08/25 07:56:17;;;;;;;28.70;9.00;;;;;;;28.04;66.58;94714.34;5114867;28;20551;-77
2022/08/25 07:58:45;;;;;;;28.80;10.13;;;;;;;27.71;65.06;94711.56;5115018;28;20446;-76
2022/08/25 08:01:14;;;;;;;21.43;9.10;;;;;;;27.64;65.70;94719.00;5115205;28;20450;-77
2022/08/25 08:03:41;;;;;;;46.03;22.80;;;;;;;27.70;65.64;94704.53;5114866;28;20500;-77
2022/08/25 08:06:16;;;;;;;20.57;10.97;;;;;;;27.82;66.08;94709.91;5115106;28;20438;-77
2022/08/25 08:08:45;;;;;;;31.83;12.47;;;;;;;27.97;65.17;94707.47;5114837;28;20466;-77
2022/08/25 08:11:16;;;;;;;52.27;31.10;;;;;;;28.08;65.18;94702.03;5114950;28;20447;-77
2022/08/25 08:13:42;;;;;;;40.70;21.20;;;;;;;28.28;64.02;94698.88;5114925;28;20853;-77
2022/08/25 08:16:10;;;;;;;24.53;11.80;;;;;;;28.44;62.77;94691.84;5114765;28;20482;-77
2022/08/25 08:18:37;;;;;;;30.10;9.20;;;;;;;28.62;61.95;94690.78;5114746;28;20527;-77
2022/08/25 08:21:04;;;;;;;37.03;16.80;;;;;;;28.55;62.67;94696.34;5114992;28;20435;-77
2022/08/25 08:23:32;;;;;;;79.37;44.97;;;;;;;28.48;63.04;94684.09;5114779;28;20446;-77
2022/08/25 08:26:11;;;;;;;25.90;11.40;;;;;;;28.18;63.25;94679.78;5114635;28;20853;-77
2022/08/25 08:28:38;;;;;;;37.17;10.73;;;;;;;27.98;59.41;94684.81;5114445;28;21021;-77
2022/08/25 08:31:05;;;;;;;33.07;7.93;;;;;;;28.08;59.81;94679.63;5114786;28;20470;-76
2022/08/25 08:33:34;;;;;;;29.93;9.67;;;;;;;27.99;60.66;94681.06;5114705;28;20937;-76
2022/08/25 08:36:04;;;;;;;33.00;8.83;;;;;;;27.73;62.85;94675.22;5114537;28;21016;-76
2022/08/25 08:38:32;;;;;;;24.20;9.27;;;;;;;27.92;63.17;94678.53;5061911;28;20470;-77
2022/08/25 08:44:15;;;;;;;95.07;43.10;;;;;;;28.44;60.93;94672.16;5114310;28;20838;-77
2022/08/25 08:46:53;;;;;;;37.57;13.63;;;;;;;28.58;60.13;94668.03;5114232;28;21212;-77
2022/08/25 08:49:27;;;;;;;24.23;9.87;;;;;;;28.33;61.13;94673.84;5113832;28;20454;-77
2022/08/25 08:52:01;;;;;;;17.57;6.77;;;;;;;28.45;58.22;94671.09;5114457;28;20455;-77
2022/08/25 08:54:35;;;;;;;21.57;8.97;;;;;;;28.71;58.54;94673.09;5114074;28;20473;-77
2022/08/25 08:57:08;;;;;;;19.03;7.80;;;;;;;28.83;57.58;94671.09;5113909;28;20487;-76
2022/08/25 08:59:43;;;;;;;28.33;7.40;;;;;;;28.45;58.02;94673.78;5063537;28;20838;-77
2022/08/25 09:02:19;;;;;;;20.33;7.57;;;;;;;28.21;55.86;94673.09;5114298;28;20454;-76
2022/08/25 09:04:51;;;;;;;19.47;7.23;;;;;;;28.07;57.15;94672.59;5113912;28;20488;-76
2022/08/25 09:07:22;;;;;;;31.30;10.90;;;;;;;28.05;57.77;94674.72;5113947;28;20443;-77
2022/08/25 09:09:50;;;;;;;51.27;14.70;;;;;;;27.97;57.48;94670.53;5113732;28;20451;-76
2022/08/25 09:12:26;;;;;;;23.10;8.67;;;;;;;27.95;59.77;94669.13;5113363;28;20984;-77
2022/08/25 09:15:04;;;;;;;21.57;8.33;;;;;;;27.93;57.12;94672.06;5113820;28;20485;-77
2022/08/25 09:17:50;;;;;;;22.33;6.23;;;;;;;27.85;56.10;94669.78;5113934;28;20439;-76
2022/08/25 09:20:59;;;;;;;28.23;8.43;;;;;;;27.48;57.54;94655.84;5113400;28;20472;-77
2022/08/25 09:23:39;;;;;;;25.93;7.40;;;;;;;27.61;58.52;94652.84;5030778;28;20934;-76
2022/08/25 09:26:24;;;;;;;25.80;7.70;;;;;;;27.60;57.63;94655.78;5030451;28;20794;-77
2022/08/25 09:29:00;;;;;;;28.67;7.53;;;;;;;27.78;57.82;94655.63;5030574;28;20500;-77
2022/08/25 09:31:31;;;;;;;37.43;8.27;;;;;;;27.88;56.95;94657.69;5030606;28;20505;-76
2022/08/25 09:34:01;;;;;;;23.60;7.60;;;;;;;27.97;56.32;94651.63;4981244;28;20439;-76
2022/08/25 09:36:28;;;;;;;26.83;7.77;;;;;;;28.15;57.42;94645.22;5030249;28;20490;-75
2022/08/25 09:38:55;;;;;;;26.10;6.70;;;;;;;28.13;54.47;94647.34;5030265;28;20482;-76
2022/08/25 09:41:48;;;;;;;16.70;5.83;;;;;;;28.24;54.62;94651.84;5030427;28;20910;-75
2022/08/25 09:44:24;;;;;;;29.50;7.20;;;;;;;28.16;52.40;94657.63;5030261;28;20443;-78
2022/08/25 09:47:06;;;;;;;23.50;6.80;;;;;;;28.40;54.56;94649.41;5030248;28;20533;-78
2022/08/25 09:49:41;;;;;;;27.30;6.63;;;;;;;28.19;54.84;94643.66;5030243;28;20945;-78
2022/08/25 09:52:24;;;;;;;24.80;5.90;;;;;;;28.09;55.47;94643.50;5030216;28;20438;-77
2022/08/25 09:54:52;;;;;;;19.40;6.10;;;;;;;28.05;56.60;94648.56;5030093;28;20446;-76
2022/08/25 09:57:32;;;;;;;19.63;5.83;;;;;;;27.62;56.52;94657.22;5030405;28;20482;-75
2022/08/25 10:00:12;;;;;;;25.70;6.03;;;;;;;27.70;55.13;94651.44;5105891;28;20446;-78
2022/08/25 10:02:40;;;;;;;20.97;6.43;;;;;;;27.68;56.88;94653.56;5112849;28;20948;-78
2022/08/25 10:05:22;;;;;;;26.23;6.20;;;;;;;27.70;56.24;94650.63;5112780;28;20446;-76
2022/08/25 10:07:53;;;;;;;40.27;7.93;;;;;;;27.68;55.58;94641.94;4996900;28;20446;-77
2022/08/25 10:10:28;;;;;;;15.67;5.83;;;;;;;27.63;55.84;94649.94;5029380;28;20445;-77
2022/08/25 10:12:59;;;;;;;21.33;6.00;;;;;;;27.38;58.12;94647.56;5029885;28;20470;-77
2022/08/25 10:15:30;;;;;;;39.43;7.50;;;;;;;27.22;58.91;94654.53;5029925;28;20868;-77
2022/08/25 10:17:58;;;;;;;21.97;6.40;;;;;;;27.01;59.37;94641.69;5030146;28;20798;-77
2022/08/25 10:20:27;;;;;;;19.47;6.33;;;;;;;26.95;59.82;94642.63;5030042;28;20451;-77
2022/08/25 10:23:11;;;;;;;33.43;6.03;;;;;;;26.87;59.91;94646.47;5029959;28;20527;-77
2022/08/25 10:25:44;;;;;;;24.03;7.93;;;;;;;26.96;61.02;94645.09;5030054;28;20454;-77
2022/08/25 10:28:20;;;;;;;20.67;6.20;;;;;;;27.05;58.68;94637.47;5029929;28;20447;-77
2022/08/25 10:30:59;;;;;;;22.43;6.40;;;;;;;27.15;59.51;94632.28;5029967;28;20442;-78
2022/08/25 10:33:36;;;;;;;25.33;6.50;;;;;;;27.20;58.63;94628.91;5029946;28;21004;-77
2022/08/25 10:36:11;;;;;;;36.93;6.53;;;;;;;27.27;59.68;94626.88;5029737;28;20573;-77
2022/08/25 10:38:43;;;;;;;27.60;8.30;;;;;;;27.25;59.66;94616.34;5029539;28;20457;-77
2022/08/25 10:41:30;;;;;;;37.60;6.33;;;;;;;27.35;59.76;94613.81;5029850;28;20501;-77
2022/08/25 10:45:41;;;;;;;29.83;6.63;;;;;;;27.48;60.52;94610.03;5031286;28;20451;-77
2022/08/25 10:47:05;;;;;;;33.87;7.73;;;;;;;27.69;58.62;94617.44;5112717;28;20526;-77
2022/08/25 10:49:41;;;;;;;36.57;6.20;;;;;;;27.60;56.69;94618.88;5112673;28;20526;-77
2022/08/25 10:52:16;;;;;;;31.57;6.27;;;;;;;27.46;57.51;94606.72;5112426;28;20921;-77
2022/08/25 10:54:49;;;;;;;29.67;7.00;;;;;;;27.38;58.64;94610.66;5112165;28;20487;-78
2022/08/25 10:57:23;;;;;;;20.80;6.30;;;;;;;27.32;59.50;94619.69;5112535;28;20531;-78
2022/08/25 11:00:00;;;;;;;17.93;5.90;;;;;;;27.02;58.67;94614.53;5112722;28;20569;-77
2022/08/25 11:02:48;;;;;;;15.60;5.77;;;;;;;27.13;58.90;94605.56;5112102;28;20446;-77
2022/08/25 11:05:21;;;;;;;29.50;6.27;;;;;;;27.34;60.19;94603.28;5112242;28;20458;-78
2022/08/25 11:07:52;;;;;;;25.30;6.50;;;;;;;27.39;58.24;94595.28;5112401;28;20818;-77
2022/08/25 11:10:22;;;;;;;18.97;5.93;;;;;;;27.37;56.76;94598.22;5112245;28;20462;-77
2022/08/25 11:12:54;;;;;;;25.73;5.60;;;;;;;27.29;55.60;94597.81;5112230;28;20477;-77
2022/08/25 11:15:28;;;;;;;29.87;5.30;;;;;;;27.31;55.91;94593.81;5112138;28;20450;-78
2022/08/25 11:17:58;;;;;;;23.53;6.23;;;;;;;27.42;56.07;94587.53;5112491;28;20446;-77
2022/08/25 11:20:32;;;;;;;15.40;5.27;;;;;;;27.56;56.36;94579.16;5112492;28;20450;-77
2022/08/25 11:23:10;;;;;;;26.13;6.37;;;;;;;27.69;56.21;94585.09;5113356;28;20454;-77
2022/08/25 11:25:42;;;;;;;33.70;6.20;;;;;;;27.73;56.17;94580.84;5065184;28;20450;-78
2022/08/25 11:28:14;;;;;;;23.17;5.87;;;;;;;27.75;54.90;94573.31;5115944;28;20450;-77
2022/08/25 11:30:43;;;;;;;22.03;5.73;;;;;;;27.89;55.68;94570.31;5115722;28;20550;-78
2022/08/25 11:33:13;;;;;;;22.80;6.10;;;;;;;27.99;55.34;94567.78;5115802;28;20470;-78
2022/08/25 11:35:43;;;;;;;25.20;5.30;;;;;;;28.04;55.51;94565.16;5079484;28;20467;-77
2022/08/25 11:38:24;;;;;;;15.67;5.00;;;;;;;28.03;55.09;94556.25;5115512;28;20447;-78
2022/08/25 11:40:59;;;;;;;14.67;4.70;;;;;;;28.01;55.46;94546.75;5115682;28;20450;-77